createdAt,value
2019-02-05T16:37:24.498Z,1017.57
2019-02-05T16:38:25.929Z,1017.55
2019-02-05T16:39:27.394Z,1017.63
2019-02-05T16:40:28.838Z,1017.60
2019-02-05T16:41:30.329Z,1017.58
2019-02-05T16:42:31.893Z,1017.62
2019-02-05T16:43:33.382Z,1017.68
2019-02-05T16:44:34.876Z,1017.64
2019-02-05T16:45:36.312Z,1017.69
2019-02-05T16:46:37.756Z,1017.67
2019-02-05T16:47:39.172Z,1017.66
2019-02-05T16:48:40.609Z,1017.69
2019-02-05T16:49:42.042Z,1017.70
2019-02-05T16:50:43.490Z,1017.67
2019-02-05T16:51:45.574Z,1017.71
2019-02-05T16:52:47.002Z,1017.70
2019-02-05T16:53:48.500Z,1017.68
2019-02-05T16:54:49.965Z,1017.69
2019-02-05T16:55:51.417Z,1017.70
2019-02-05T16:56:52.853Z,1017.72
2019-02-05T16:57:54.281Z,1017.77
2019-02-05T16:58:55.714Z,1017.77
2019-02-05T16:59:57.155Z,1017.77
2019-02-05T17:00:58.538Z,1017.77
2019-02-05T17:01:59.949Z,1017.78
2019-02-05T17:03:01.343Z,1017.77
2019-02-05T17:04:02.763Z,1017.83
2019-02-05T17:05:04.209Z,1017.80
2019-02-05T17:06:05.626Z,1017.87
2019-02-05T17:07:07.065Z,1017.81
2019-02-05T17:08:08.496Z,1017.83
2019-02-05T17:09:09.950Z,1017.89
2019-02-05T17:10:11.371Z,1017.87
2019-02-05T17:11:12.863Z,1017.85
2019-02-05T17:12:14.334Z,1017.86
2019-02-05T17:13:15.742Z,1017.85
2019-02-05T17:14:17.194Z,1017.85
2019-02-05T17:15:18.688Z,1017.90
2019-02-05T17:16:20.128Z,1017.90
2019-02-05T17:17:21.619Z,1017.89
2019-02-05T17:18:24.028Z,1017.90
2019-02-05T17:19:24.525Z,1017.90
2019-02-05T17:20:25.941Z,1017.86
2019-02-05T17:21:27.483Z,1017.88
2019-02-05T17:22:28.978Z,1017.84
2019-02-05T17:23:30.434Z,1017.91
2019-02-05T17:24:31.920Z,1017.91
2019-02-05T17:25:35.714Z,1017.93
2019-02-05T17:26:34.820Z,1017.97
2019-02-05T17:27:36.307Z,1017.93
2019-02-05T17:28:37.761Z,1017.93
2019-02-05T17:29:39.164Z,1017.95
2019-02-05T17:30:40.639Z,1017.93
2019-02-05T17:31:42.101Z,1017.93
2019-02-05T17:32:43.592Z,1018.00
2019-02-05T17:33:45.098Z,1017.94
2019-02-05T17:34:46.539Z,1017.97
2019-02-05T17:35:48.006Z,1017.97
2019-02-05T17:36:49.551Z,1017.90
2019-02-05T17:37:51.037Z,1017.89
2019-02-05T17:38:52.459Z,1017.96
2019-02-05T17:39:53.986Z,1017.92
2019-02-05T17:40:55.537Z,1017.93
2019-02-05T17:41:57.052Z,1017.92
2019-02-05T17:42:58.544Z,1017.92
2019-02-05T17:44:00.004Z,1017.96
2019-02-05T17:45:01.481Z,1017.95
2019-02-05T17:46:05.669Z,1017.93
2019-02-05T17:47:04.325Z,1017.95
2019-02-05T17:48:05.835Z,1017.94
2019-02-05T17:49:08.183Z,1017.95
2019-02-05T17:50:09.707Z,1017.92
2019-02-05T17:51:11.226Z,1017.89
2019-02-05T17:52:12.685Z,1017.94
2019-02-05T17:53:14.142Z,1017.93
2019-02-05T17:54:15.651Z,1017.95
2019-02-05T17:55:17.155Z,1017.97
2019-02-05T17:56:18.676Z,1018.00
2019-02-05T17:57:20.108Z,1017.95
2019-02-05T17:58:21.658Z,1017.99
2019-02-05T17:59:23.227Z,1017.99
2019-02-05T18:00:25.236Z,1017.99
2019-02-05T18:01:26.202Z,1017.96
2019-02-05T18:02:27.692Z,1017.98
2019-02-05T18:03:29.163Z,1017.97
2019-02-05T18:04:30.723Z,1017.93
2019-02-05T18:05:34.609Z,1017.92
2019-02-05T18:06:34.633Z,1017.94
2019-02-05T18:07:36.075Z,1017.99
2019-02-05T18:08:38.294Z,1017.96
2019-02-05T18:09:39.806Z,1017.95
2019-02-05T18:10:42.088Z,1017.95
2019-02-05T18:11:42.738Z,1017.94
2019-02-05T18:12:44.260Z,1017.97
2019-02-05T18:13:45.763Z,1017.92
2019-02-05T18:14:47.282Z,1017.94
2019-02-05T18:15:49.364Z,1017.96
2019-02-05T18:16:50.801Z,1017.92
2019-02-05T18:17:52.922Z,1017.92
2019-02-05T18:18:53.818Z,1017.97
2019-02-05T18:19:55.330Z,1017.98
2019-02-05T18:20:56.838Z,1017.97
2019-02-05T18:21:58.326Z,1018.00
2019-02-05T18:22:59.790Z,1017.99
2019-02-05T18:24:01.286Z,1017.97
2019-02-05T18:25:02.802Z,1018.00
2019-02-05T18:26:04.265Z,1017.99
2019-02-05T18:27:05.815Z,1018.03
2019-02-05T18:28:08.265Z,1018.03
2019-02-05T18:29:11.181Z,1017.98
2019-02-05T18:30:12.627Z,1018.02
2019-02-05T18:31:14.173Z,1018.06
2019-02-05T18:32:15.749Z,1018.04
2019-02-05T18:33:17.351Z,1018.09
2019-02-05T18:34:18.896Z,1018.07
2019-02-05T18:35:21.925Z,1018.08
2019-02-05T18:36:22.921Z,1018.06
2019-02-05T18:37:24.507Z,1018.05
2019-02-05T18:38:27.115Z,1018.11
2019-02-05T18:39:28.654Z,1018.09
2019-02-05T18:40:30.256Z,1018.06
2019-02-05T18:41:31.840Z,1018.05
2019-02-05T18:42:34.024Z,1018.08
2019-02-05T18:43:36.607Z,1018.08
2019-02-05T18:44:38.173Z,1018.13
2019-02-05T18:45:40.607Z,1018.07
2019-02-05T18:46:42.136Z,1018.07
2019-02-05T18:47:44.519Z,1018.07
2019-02-05T18:48:47.594Z,1018.02
2019-02-05T18:49:49.161Z,1018.05
2019-02-05T18:50:50.725Z,1017.99
2019-02-05T18:51:52.291Z,1018.06
2019-02-05T18:52:53.809Z,1018.03
2019-02-05T18:53:56.087Z,1018.03
2019-02-05T18:54:57.669Z,1018.07
2019-02-05T18:56:00.187Z,1018.05
2019-02-05T18:57:01.674Z,1018.05
2019-02-05T18:58:09.437Z,1018.04
2019-02-05T18:59:07.388Z,1018.08
2019-02-05T19:00:13.644Z,1018.08
2019-02-05T19:01:17.936Z,1018.07
2019-02-05T19:02:22.872Z,1018.03
2019-02-05T19:03:28.317Z,1017.99
2019-02-05T19:04:32.028Z,1017.99
2019-02-05T19:05:35.676Z,1017.99
2019-02-05T19:06:40.319Z,1017.98
2019-02-05T19:07:44.904Z,1018.03
2019-02-05T19:08:48.184Z,1017.97
2019-02-05T19:09:49.736Z,1018.00
2019-02-05T19:10:51.805Z,1017.99
2019-02-05T19:11:53.313Z,1018.01
2019-02-05T19:12:54.912Z,1018.03
2019-02-05T19:13:58.298Z,1018.09
2019-02-05T19:14:59.791Z,1018.06
2019-02-05T19:16:01.345Z,1018.03
2019-02-05T19:17:03.624Z,1018.05
2019-02-05T19:18:06.044Z,1018.06
2019-02-05T19:19:14.947Z,1018.09
2019-02-05T19:20:11.301Z,1018.04
2019-02-05T19:21:13.537Z,1018.04
2019-02-05T19:22:15.104Z,1018.07
2019-02-05T19:23:17.409Z,1018.05
2019-02-05T19:24:18.996Z,1018.07
2019-02-05T19:25:20.589Z,1018.05
2019-02-05T19:26:22.161Z,1018.09
2019-02-05T19:27:28.605Z,1018.04
2019-02-05T19:28:32.933Z,1018.06
2019-02-05T19:29:36.931Z,1018.11
2019-02-05T19:30:40.383Z,1018.11
2019-02-05T19:31:44.046Z,1018.13
2019-02-05T19:32:48.559Z,1018.13
2019-02-05T19:33:53.885Z,1018.14
2019-02-05T19:34:59.188Z,1018.08
2019-02-05T19:36:07.314Z,1018.11
2019-02-05T19:37:10.823Z,1018.09
2019-02-05T19:38:13.953Z,1018.14
2019-02-05T19:39:18.089Z,1018.21
2019-02-05T19:40:22.668Z,1018.17
2019-02-05T19:41:30.199Z,1018.13
2019-02-05T19:42:36.821Z,1018.16
2019-02-05T19:43:39.824Z,1018.12
2019-02-05T19:44:43.930Z,1018.14
2019-02-05T19:45:45.534Z,1018.15
2019-02-05T19:46:47.083Z,1018.18
2019-02-05T19:47:49.562Z,1018.20
2019-02-05T19:48:54.132Z,1018.24
2019-02-05T19:49:57.044Z,1018.27
2019-02-05T19:51:00.597Z,1018.32
2019-02-05T19:52:03.872Z,1018.35
2019-02-05T19:53:05.463Z,1018.35
2019-02-05T19:54:07.076Z,1018.39
2019-02-05T19:55:09.177Z,1018.43
2019-02-05T19:56:14.378Z,1018.40
2019-02-05T19:57:16.947Z,1018.38
2019-02-05T19:58:19.309Z,1018.36
2019-02-05T19:59:20.964Z,1018.37
2019-02-05T20:00:26.645Z,1018.39
2019-02-05T20:01:29.555Z,1018.39
2019-02-05T20:02:31.047Z,1018.38
2019-02-05T20:03:38.783Z,1018.37
2019-02-05T20:04:36.357Z,1018.44
2019-02-05T20:05:38.781Z,1018.38
2019-02-05T20:06:40.463Z,1018.35
2019-02-05T20:07:42.785Z,1018.27
2019-02-05T20:08:45.830Z,1018.32
2019-02-05T20:09:49.286Z,1018.35
2019-02-05T20:10:50.873Z,1018.36
2019-02-05T20:11:53.343Z,1018.41
2019-02-05T20:12:56.443Z,1018.44
2019-02-05T20:13:58.211Z,1018.44
2019-02-05T20:15:02.390Z,1018.46
2019-02-05T20:16:04.000Z,1018.46
2019-02-05T20:17:05.590Z,1018.54
2019-02-05T20:18:09.559Z,1018.51
2019-02-05T20:19:12.706Z,1018.55
2019-02-05T20:20:15.544Z,1018.53
2019-02-05T20:21:18.045Z,1018.53
2019-02-05T20:22:23.032Z,1018.57
2019-02-05T20:23:28.538Z,1018.53
2019-02-05T20:24:32.180Z,1018.57
2019-02-05T20:25:35.833Z,1018.58
2019-02-05T20:26:39.689Z,1018.58
2019-02-05T20:27:45.873Z,1018.60
2019-02-05T20:28:51.560Z,1018.59
2019-02-05T20:29:54.985Z,1018.63
2019-02-05T20:30:59.727Z,1018.62
2019-02-05T20:32:04.507Z,1018.61
2019-02-05T20:33:08.718Z,1018.63
2019-02-05T20:34:12.452Z,1018.67
2019-02-05T20:35:15.591Z,1018.67
2019-02-05T20:36:20.171Z,1018.71
2019-02-05T20:37:25.513Z,1018.77
2019-02-05T20:38:31.483Z,1018.64
2019-02-05T20:39:33.731Z,1018.66
2019-02-05T20:40:36.822Z,1018.71
2019-02-05T20:41:39.414Z,1018.70
2019-02-05T20:42:41.657Z,1018.72
2019-02-05T20:43:44.889Z,1018.73
2019-02-05T20:44:47.331Z,1018.67
2019-02-05T20:45:51.093Z,1018.69
2019-02-05T20:46:54.258Z,1018.67
2019-02-05T20:47:56.448Z,1018.67
2019-02-05T20:48:58.217Z,1018.69
2019-02-05T20:50:01.113Z,1018.68
2019-02-05T20:51:04.961Z,1018.72
2019-02-05T20:52:06.321Z,1018.72
2019-02-05T20:53:14.071Z,1018.73
2019-02-05T20:54:10.205Z,1018.72
2019-02-05T20:55:11.902Z,1018.71
2019-02-05T20:56:14.231Z,1018.73
2019-02-05T20:57:15.753Z,1018.71
2019-02-05T20:58:20.411Z,1018.73
2019-02-05T20:59:24.036Z,1018.77
2019-02-05T21:00:28.235Z,1018.75
2019-02-05T21:01:34.078Z,1018.76
2019-02-05T21:02:38.470Z,1018.80
2019-02-05T21:03:43.817Z,1018.80
2019-02-05T21:04:50.036Z,1018.80
2019-02-05T21:05:52.414Z,1018.77
2019-02-05T21:06:59.687Z,1018.77
2019-02-05T21:08:03.498Z,1018.81
2019-02-05T21:09:10.877Z,1018.81
2019-02-05T21:10:16.105Z,1018.75
2019-02-05T21:11:19.751Z,1018.77
2019-02-05T21:12:25.108Z,1018.74
2019-02-05T21:13:28.096Z,1018.81
2019-02-05T21:14:29.646Z,1018.81
2019-02-05T21:15:31.947Z,1018.77
2019-02-05T21:16:35.810Z,1018.78
2019-02-05T21:17:37.396Z,1018.82
2019-02-05T21:18:38.969Z,1018.82
2019-02-05T21:19:41.445Z,1018.86
2019-02-05T21:20:44.658Z,1018.84
2019-02-05T21:21:48.619Z,1018.87
2019-02-05T21:22:56.777Z,1018.87
2019-02-05T21:23:59.622Z,1018.87
2019-02-05T21:25:06.245Z,1018.89
2019-02-05T21:26:10.451Z,1018.88
2019-02-05T21:27:13.959Z,1018.89
2019-02-05T21:28:20.137Z,1018.88
2019-02-05T21:29:24.554Z,1018.91
2019-02-05T21:30:28.345Z,1018.88
2019-02-05T21:31:33.148Z,1018.93
2019-02-05T21:32:40.310Z,1018.93
2019-02-05T21:33:45.425Z,1018.93
2019-02-05T21:34:49.739Z,1018.97
2019-02-05T21:35:55.076Z,1018.99
2019-02-05T21:37:00.077Z,1019.00
2019-02-05T21:38:05.414Z,1018.97
2019-02-05T21:39:08.499Z,1019.01
2019-02-05T21:40:12.247Z,1019.02
2019-02-05T21:41:15.919Z,1019.04
2019-02-05T21:42:20.521Z,1019.02
2019-02-05T21:43:24.455Z,1019.05
2019-02-05T21:44:29.110Z,1019.06
2019-02-05T21:45:32.778Z,1019.04
2019-02-05T21:46:38.218Z,1019.06
2019-02-05T21:47:42.766Z,1019.03
2019-02-05T21:48:47.107Z,1019.01
2019-02-05T21:49:52.361Z,1019.03
2019-02-05T21:50:58.469Z,1019.01
2019-02-05T21:51:59.991Z,1018.98
